Time;durP1;ratioP1;P1;durP2;ratioP2;P2;SDS_P1;SDS_P2;PMS_P1;PMS_P2;Temp;Humidity;BMP_temperature;BMP_pressure;BME280_temperature;BME280_humidity;BME280_pressure;Samples;Min_cycle;Max_cycle;Signal;HPM_P1;HPM_P2
2021/10/08 00:01:43;;;;;;;0.00;0.00;;;15.60;81.20;;;;;;4975144;28;20673;-85
2021/10/08 00:04:11;;;;;;;0.50;0.50;;;15.70;81.10;;;;;;4962270;28;20289;-84
2021/10/08 00:06:39;;;;;;;0.30;0.30;;;15.70;81.00;;;;;;4962866;28;20214;-84
2021/10/08 00:09:06;;;;;;;0.10;0.10;;;15.70;80.90;;;;;;4970300;28;20551;-85
2021/10/08 00:11:33;;;;;;;3.70;0.53;;;15.70;80.80;;;;;;4981997;28;20227;-84
2021/10/08 00:14:00;;;;;;;0.33;0.33;;;15.70;80.80;;;;;;4981290;28;20240;-85
2021/10/08 00:16:28;;;;;;;0.10;0.10;;;15.70;80.80;;;;;;4981332;28;20316;-85
2021/10/08 00:19:03;;;;;;;0.10;0.10;;;15.70;80.60;;;;;;4981775;28;20223;-85
2021/10/08 00:21:30;;;;;;;0.10;0.10;;;15.70;80.50;;;;;;4981503;28;20217;-85
2021/10/08 00:23:58;;;;;;;0.20;0.20;;;15.70;80.30;;;;;;4981724;28;20245;-85
2021/10/08 00:26:25;;;;;;;0.97;0.37;;;15.70;80.30;;;;;;4981463;28;20217;-84
2021/10/08 00:28:53;;;;;;;0.10;0.10;;;15.70;80.40;;;;;;4981978;28;20216;-84
2021/10/08 00:31:20;;;;;;;0.10;0.10;;;15.70;80.40;;;;;;4981456;28;20562;-85
2021/10/08 00:33:47;;;;;;;0.10;0.07;;;15.70;80.30;;;;;;4981096;28;20240;-86
2021/10/08 00:36:14;;;;;;;0.10;0.10;;;15.70;80.40;;;;;;4981122;28;20636;-84
2021/10/08 00:38:42;;;;;;;0.03;0.03;;;15.70;80.30;;;;;;4980880;28;20227;-86
2021/10/08 00:41:10;;;;;;;0.10;0.10;;;15.70;80.30;;;;;;4978302;28;20653;-85
2021/10/08 00:43:38;;;;;;;1.60;0.40;;;15.70;80.20;;;;;;4962322;28;20553;-85
2021/10/08 00:46:05;;;;;;;0.10;0.10;;;15.70;80.20;;;;;;4974942;28;20217;-85
2021/10/08 00:48:35;;;;;;;0.40;0.40;;;15.70;80.20;;;;;;4980626;28;20216;-85
2021/10/08 00:51:02;;;;;;;0.20;0.20;;;15.70;80.20;;;;;;4981023;28;20216;-85
2021/10/08 00:53:29;;;;;;;0.10;0.10;;;15.70;80.20;;;;;;4981151;28;20251;-84
2021/10/08 00:56:01;;;;;;;0.10;0.10;;;15.70;80.20;;;;;;4980408;28;20213;-85
2021/10/08 00:58:29;;;;;;;0.00;0.00;;;15.70;80.20;;;;;;4993902;28;20241;-83
2021/10/08 01:00:57;;;;;;;0.10;0.10;;;15.70;80.30;;;;;;5001202;28;20209;-85
2021/10/08 01:03:25;;;;;;;0.30;0.30;;;15.70;80.30;;;;;;5000226;28;20300;-84
2021/10/08 01:05:52;;;;;;;0.50;0.50;;;15.70;80.40;;;;;;4999881;28;20208;-85
2021/10/08 01:08:19;;;;;;;0.10;0.10;;;15.70;80.50;;;;;;4999643;28;20259;-84
2021/10/08 01:10:47;;;;;;;0.23;0.23;;;15.70;80.70;;;;;;4999445;28;20205;-85
2021/10/08 01:13:16;;;;;;;0.20;0.20;;;15.70;80.60;;;;;;4999169;28;20208;-85
2021/10/08 01:15:44;;;;;;;0.10;0.10;;;15.60;80.50;;;;;;4998277;28;20555;-84
2021/10/08 01:18:11;;;;;;;0.10;0.10;;;15.60;80.50;;;;;;4998748;28;20316;-85
2021/10/08 01:20:39;;;;;;;0.10;0.10;;;15.60;80.40;;;;;;4998366;28;20331;-84
2021/10/08 01:23:06;;;;;;;0.00;0.00;;;15.60;80.30;;;;;;4998505;28;20212;-85
2021/10/08 01:25:36;;;;;;;0.00;0.00;;;15.60;80.40;;;;;;4998570;28;20216;-85
2021/10/08 01:28:04;;;;;;;0.20;0.20;;;15.60;80.30;;;;;;4999593;28;20220;-85
2021/10/08 01:30:32;;;;;;;0.10;0.10;;;15.60;80.30;;;;;;4999912;28;20263;-85
2021/10/08 01:33:01;;;;;;;0.10;0.10;;;15.60;80.30;;;;;;5000110;28;20295;-84
2021/10/08 01:35:30;;;;;;;0.10;0.10;;;15.60;80.40;;;;;;5000326;28;20232;-85
2021/10/08 01:37:57;;;;;;;0.10;0.10;;;15.70;80.40;;;;;;4999974;28;20216;-85
2021/10/08 01:40:26;;;;;;;0.00;0.00;;;15.60;80.50;;;;;;4999178;28;20216;-84
2021/10/08 01:42:53;;;;;;;2.00;0.33;;;15.60;80.50;;;;;;5015516;28;20223;-85
2021/10/08 01:45:20;;;;;;;0.10;0.10;;;15.60;80.50;;;;;;5016615;28;20216;-86
2021/10/08 01:47:47;;;;;;;1.03;0.93;;;15.60;80.50;;;;;;5017575;28;20226;-85
2021/10/08 01:50:14;;;;;;;0.47;0.47;;;15.60;80.50;;;;;;5018056;28;20224;-85
2021/10/08 01:52:43;;;;;;;0.10;0.10;;;15.60;80.40;;;;;;5000854;28;20228;-85
2021/10/08 01:55:11;;;;;;;0.10;0.10;;;15.60;80.20;;;;;;4977900;28;20744;-85
2021/10/08 01:57:38;;;;;;;0.10;0.10;;;15.60;80.10;;;;;;4977695;28;20313;-85
2021/10/08 02:00:06;;;;;;;0.57;0.57;;;15.60;80.10;;;;;;4980502;28;20547;-84
2021/10/08 02:02:34;;;;;;;0.10;0.10;;;15.60;79.90;;;;;;4998817;28;20231;-84
2021/10/08 02:05:01;;;;;;;0.03;0.03;;;15.70;79.90;;;;;;4998961;28;20239;-85
2021/10/08 02:07:30;;;;;;;0.10;0.10;;;15.70;79.80;;;;;;4999073;28;20302;-85
2021/10/08 02:09:59;;;;;;;0.03;0.03;;;15.70;79.70;;;;;;5012898;28;20230;-84
2021/10/08 02:12:26;;;;;;;3.40;0.93;;;15.70;79.50;;;;;;5000263;28;20218;-85
2021/10/08 02:14:53;;;;;;;0.10;0.10;;;15.70;79.30;;;;;;5000458;28;20232;-85
2021/10/08 02:17:20;;;;;;;0.00;0.00;;;15.70;79.30;;;;;;5001468;28;20224;-85
2021/10/08 02:19:49;;;;;;;0.00;0.00;;;15.80;79.40;;;;;;5002364;28;20222;-84
2021/10/08 02:22:21;;;;;;;0.10;0.10;;;15.70;79.40;;;;;;4985187;28;20228;-85
2021/10/08 02:24:49;;;;;;;0.10;0.10;;;15.70;79.40;;;;;;4981682;28;20552;-85
2021/10/08 02:27:16;;;;;;;0.10;0.10;;;15.70;79.50;;;;;;4986886;28;20223;-84
2021/10/08 02:29:43;;;;;;;0.00;0.00;;;15.70;79.40;;;;;;4997422;28;20594;-85
2021/10/08 02:32:11;;;;;;;0.10;0.10;;;15.70;79.50;;;;;;4996598;28;20243;-85
2021/10/08 02:34:38;;;;;;;0.10;0.10;;;15.70;79.40;;;;;;5014614;28;20252;-84
2021/10/08 02:37:05;;;;;;;0.07;0.07;;;15.70;79.50;;;;;;4998248;28;20222;-84
2021/10/08 02:39:33;;;;;;;0.10;0.10;;;15.70;79.60;;;;;;4998599;28;20244;-85
2021/10/08 02:42:01;;;;;;;0.00;0.00;;;15.70;79.60;;;;;;4998396;28;20227;-84
2021/10/08 02:44:28;;;;;;;0.00;0.00;;;15.70;79.40;;;;;;4998571;28;20221;-84
2021/10/08 02:46:59;;;;;;;0.00;0.00;;;15.70;79.40;;;;;;5000020;28;20239;-85
2021/10/08 02:49:31;;;;;;;0.83;0.83;;;15.70;79.20;;;;;;4999420;28;20230;-84
2021/10/08 02:52:02;;;;;;;0.10;0.10;;;15.80;79.20;;;;;;4999333;28;20527;-85
2021/10/08 02:54:29;;;;;;;0.43;0.43;;;15.80;79.10;;;;;;4998203;28;20254;-84
2021/10/08 02:57:00;;;;;;;0.10;0.10;;;15.70;79.10;;;;;;4997866;28;20232;-85
2021/10/08 02:59:28;;;;;;;0.10;0.10;;;15.70;79.10;;;;;;4998724;28;20539;-85
2021/10/08 03:01:56;;;;;;;0.30;0.30;;;15.70;79.30;;;;;;4998297;28;20295;-85
2021/10/08 03:04:25;;;;;;;0.20;0.20;;;15.70;79.40;;;;;;4998595;28;20215;-84
2021/10/08 03:06:52;;;;;;;0.83;0.20;;;15.70;79.50;;;;;;4998425;28;20216;-85
2021/10/08 03:09:19;;;;;;;0.00;0.00;;;15.70;79.50;;;;;;4998054;28;20290;-85
2021/10/08 03:11:46;;;;;;;0.10;0.10;;;15.70;79.60;;;;;;4998232;28;20212;-85
2021/10/08 03:14:14;;;;;;;0.10;0.10;;;15.70;79.60;;;;;;4998035;28;20246;-85
2021/10/08 03:16:42;;;;;;;0.10;0.10;;;15.70;79.60;;;;;;4999099;28;20213;-85
2021/10/08 03:19:09;;;;;;;0.10;0.10;;;15.70;79.60;;;;;;4998397;28;20216;-85
2021/10/08 03:21:36;;;;;;;0.33;0.33;;;15.70;79.60;;;;;;4997906;28;20584;-85
2021/10/08 03:24:04;;;;;;;0.03;0.03;;;15.70;79.60;;;;;;4998747;28;20248;-85
2021/10/08 03:26:32;;;;;;;0.00;0.00;;;15.70;79.60;;;;;;4998818;28;20598;-85
2021/10/08 03:28:59;;;;;;;0.10;0.10;;;15.70;79.60;;;;;;4998719;28;20231;-85
2021/10/08 03:31:27;;;;;;;0.20;0.20;;;15.70;79.60;;;;;;4998219;28;20216;-85
2021/10/08 03:33:55;;;;;;;0.10;0.10;;;15.70;79.60;;;;;;5014354;28;20676;-85
2021/10/08 03:39:09;;;;;;;0.20;0.20;;;15.70;79.80;;;;;;5002229;28;20212;-85
2021/10/08 03:41:39;;;;;;;0.10;0.10;;;15.70;79.80;;;;;;5002164;28;20626;-85
2021/10/08 03:44:06;;;;;;;0.83;0.83;;;15.60;79.80;;;;;;5002139;28;20212;-85
2021/10/08 03:46:57;;;;;;;0.30;0.30;;;15.60;79.90;;;;;;5002541;28;20287;-85
2021/10/08 03:49:23;;;;;;;0.10;0.10;;;15.60;80.00;;;;;;5004036;28;20221;-85
2021/10/08 03:51:52;;;;;;;0.20;0.20;;;15.60;80.00;;;;;;5003479;28;20239;-85
2021/10/08 03:54:21;;;;;;;0.77;0.50;;;15.60;80.00;;;;;;5004876;28;20239;-85
2021/10/08 03:56:49;;;;;;;0.00;0.00;;;15.60;79.80;;;;;;5003950;28;20208;-86
2021/10/08 03:59:18;;;;;;;0.10;0.10;;;15.60;79.70;;;;;;5005028;28;20530;-85
2021/10/08 04:01:47;;;;;;;1.07;1.00;;;15.60;79.60;;;;;;5004835;28;20212;-85
2021/10/08 04:04:14;;;;;;;0.13;0.13;;;15.60;79.70;;;;;;5004794;28;20280;-85
2021/10/08 04:06:42;;;;;;;0.10;0.10;;;15.70;79.70;;;;;;5004868;28;20247;-85
2021/10/08 04:09:18;;;;;;;0.10;0.10;;;15.70;79.60;;;;;;5004363;28;20212;-85
2021/10/08 04:11:47;;;;;;;0.20;0.20;;;15.70;79.40;;;;;;5004081;28;20552;-85
2021/10/08 04:14:18;;;;;;;0.10;0.10;;;15.70;79.30;;;;;;5003783;28;20240;-85
2021/10/08 04:16:45;;;;;;;0.00;0.00;;;15.70;79.20;;;;;;5003569;28;20212;-85
2021/10/08 04:19:13;;;;;;;0.10;0.10;;;15.70;79.30;;;;;;5005027;28;20288;-85
2021/10/08 04:21:40;;;;;;;0.30;0.30;;;15.70;79.30;;;;;;5004088;28;20295;-85
2021/10/08 04:24:07;;;;;;;0.30;0.30;;;15.70;79.10;;;;;;5005124;28;20619;-85
2021/10/08 04:26:34;;;;;;;0.30;0.30;;;15.70;79.10;;;;;;5002102;28;20208;-85
2021/10/08 04:29:06;;;;;;;0.10;0.10;;;15.70;79.10;;;;;;5001228;28;20295;-85
2021/10/08 04:31:33;;;;;;;0.40;0.40;;;15.70;79.10;;;;;;5001929;28;20242;-85
2021/10/08 04:34:00;;;;;;;0.10;0.10;;;15.70;79.10;;;;;;5001510;28;20208;-85
2021/10/08 04:36:30;;;;;;;0.10;0.10;;;15.70;79.10;;;;;;5002932;28;20236;-84
2021/10/08 04:38:58;;;;;;;0.10;0.10;;;15.70;78.90;;;;;;5002364;28;20223;-85
2021/10/08 04:41:25;;;;;;;0.83;0.83;;;15.70;78.90;;;;;;5002997;28;20208;-85
2021/10/08 04:43:52;;;;;;;0.40;0.40;;;15.70;78.90;;;;;;5019183;28;20209;-85
2021/10/08 04:46:19;;;;;;;0.50;0.50;;;15.70;79.00;;;;;;5002921;28;20295;-84
2021/10/08 04:48:46;;;;;;;0.10;0.10;;;15.70;79.00;;;;;;5004152;28;20243;-85
2021/10/08 04:51:16;;;;;;;0.73;0.33;;;15.70;79.00;;;;;;5003612;28;20216;-85
2021/10/08 04:53:44;;;;;;;0.10;0.10;;;15.70;78.90;;;;;;5007306;28;20224;-85
2021/10/08 04:56:12;;;;;;;0.10;0.10;;;15.70;78.70;;;;;;5002303;28;20243;-84
2021/10/08 04:58:39;;;;;;;0.30;0.30;;;15.70;78.60;;;;;;5001537;28;20323;-85
2021/10/08 05:01:07;;;;;;;0.10;0.10;;;15.70;78.60;;;;;;4999839;28;20226;-84
2021/10/08 05:03:34;;;;;;;0.20;0.20;;;15.60;78.60;;;;;;5000521;28;20263;-85
2021/10/08 05:06:01;;;;;;;0.10;0.10;;;15.60;78.70;;;;;;5002116;28;20230;-85
2021/10/08 05:08:29;;;;;;;0.10;0.10;;;15.60;78.70;;;;;;5000600;28;20617;-85
2021/10/08 05:10:56;;;;;;;2.27;0.73;;;15.60;78.80;;;;;;5001169;28;20216;-84
2021/10/08 05:13:23;;;;;;;0.10;0.10;;;15.60;78.80;;;;;;5000438;28;20216;-84
2021/10/08 05:15:50;;;;;;;0.97;0.97;;;15.60;78.80;;;;;;4999481;28;20248;-85
2021/10/08 05:18:17;;;;;;;0.10;0.10;;;15.60;78.80;;;;;;5001379;28;20216;-85
2021/10/08 05:20:44;;;;;;;0.10;0.10;;;15.60;78.80;;;;;;5000960;28;20272;-84
2021/10/08 05:23:12;;;;;;;0.37;0.37;;;15.60;78.80;;;;;;5003229;28;20227;-84
2021/10/08 05:25:42;;;;;;;0.10;0.10;;;15.60;78.90;;;;;;5019586;28;20207;-84
2021/10/08 05:28:10;;;;;;;0.30;0.30;;;15.60;78.90;;;;;;5035578;28;20715;-85
2021/10/08 05:30:39;;;;;;;0.10;0.10;;;15.60;78.90;;;;;;5019160;28;20235;-85
2021/10/08 05:33:07;;;;;;;1.00;1.00;;;15.60;79.00;;;;;;5035755;28;20226;-85
2021/10/08 05:35:34;;;;;;;0.37;0.37;;;15.60;78.70;;;;;;5034576;28;20242;-84
2021/10/08 05:38:05;;;;;;;0.47;0.47;;;15.60;78.80;;;;;;5035043;28;20273;-85
2021/10/08 05:40:32;;;;;;;2.00;1.60;;;15.60;78.90;;;;;;5035071;28;20216;-85
2021/10/08 05:43:01;;;;;;;10.03;0.50;;;15.60;78.90;;;;;;5035809;28;20222;-85
2021/10/08 05:45:29;;;;;;;0.43;0.43;;;15.60;78.80;;;;;;5035391;28;20246;-85
2021/10/08 05:47:58;;;;;;;1.10;1.03;;;15.60;78.80;;;;;;5035217;28;20574;-84
2021/10/08 05:50:26;;;;;;;0.10;0.10;;;15.60;78.80;;;;;;5034468;28;20208;-85
2021/10/08 05:52:56;;;;;;;0.10;0.10;;;15.60;78.90;;;;;;5033264;28;20331;-85
2021/10/08 05:55:25;;;;;;;0.47;0.47;;;15.60;79.00;;;;;;5033046;28;20232;-85
2021/10/08 05:57:55;;;;;;;0.13;0.13;;;15.60;79.10;;;;;;5034303;28;20289;-84
2021/10/08 06:00:23;;;;;;;0.93;0.93;;;15.60;79.10;;;;;;5034395;28;20611;-85
2021/10/08 06:02:50;;;;;;;0.30;0.30;;;15.60;79.10;;;;;;5035205;28;20212;-85
2021/10/08 06:05:18;;;;;;;0.10;0.10;;;15.60;79.10;;;;;;5036345;28;20215;-85
2021/10/08 06:07:49;;;;;;;0.63;0.47;;;15.60;79.10;;;;;;5034218;28;20633;-85
2021/10/08 06:10:16;;;;;;;0.10;0.10;;;15.60;79.20;;;;;;5017954;28;20219;-84
2021/10/08 06:12:44;;;;;;;0.10;0.10;;;15.60;79.20;;;;;;5035835;28;20215;-85
2021/10/08 06:15:13;;;;;;;0.10;0.10;;;15.60;79.20;;;;;;5034562;28;20311;-85
2021/10/08 06:17:40;;;;;;;0.37;0.37;;;15.60;79.30;;;;;;5035471;28;20214;-85
2021/10/08 06:20:09;;;;;;;0.20;0.20;;;15.60;79.30;;;;;;5034599;28;20632;-84
2021/10/08 06:22:36;;;;;;;0.10;0.10;;;15.60;79.30;;;;;;5034834;28;20711;-85
2021/10/08 06:25:06;;;;;;;1.07;0.97;;;15.60;79.40;;;;;;5018350;28;20208;-85
2021/10/08 06:27:33;;;;;;;0.10;0.10;;;15.60;79.30;;;;;;5033595;28;20289;-85
2021/10/08 06:30:01;;;;;;;0.47;0.47;;;15.60;79.40;;;;;;5033487;28;20216;-85
2021/10/08 06:32:28;;;;;;;0.10;0.10;;;15.60;79.30;;;;;;5036674;28;20311;-85
2021/10/08 06:34:55;;;;;;;0.27;0.27;;;15.60;79.40;;;;;;5036973;28;20661;-85
2021/10/08 06:37:22;;;;;;;0.20;0.20;;;15.70;79.30;;;;;;5037054;28;20274;-85
2021/10/08 06:39:49;;;;;;;0.10;0.10;;;15.70;79.30;;;;;;5037196;28;20520;-85
2021/10/08 06:42:24;;;;;;;1.70;0.67;;;15.70;79.20;;;;;;5037226;28;20611;-85
2021/10/08 06:44:57;;;;;;;0.10;0.10;;;15.70;79.10;;;;;;5037476;28;20218;-85
2021/10/08 06:47:25;;;;;;;0.10;0.10;;;15.80;78.90;;;;;;5036951;28;20218;-84
2021/10/08 06:49:53;;;;;;;1.10;0.47;;;15.80;78.90;;;;;;5036871;28;20674;-85
2021/10/08 06:52:20;;;;;;;0.10;0.10;;;15.90;79.00;;;;;;5037993;28;20216;-85
2021/10/08 06:54:49;;;;;;;0.87;0.30;;;15.80;78.90;;;;;;5039303;28;20350;-84
2021/10/08 06:57:17;;;;;;;0.10;0.10;;;15.90;78.80;;;;;;5016808;28;20755;-85
2021/10/08 06:59:44;;;;;;;0.43;0.43;;;15.90;78.60;;;;;;5033184;28;20211;-85
2021/10/08 07:02:11;;;;;;;0.10;0.10;;;15.90;78.50;;;;;;5032150;28;20216;-86
2021/10/08 07:04:39;;;;;;;0.10;0.10;;;15.90;78.60;;;;;;5033117;28;20223;-85
2021/10/08 07:07:06;;;;;;;0.10;0.10;;;15.90;78.60;;;;;;5036786;28;20207;-85
2021/10/08 07:09:33;;;;;;;0.43;0.37;;;16.00;78.60;;;;;;5036750;28;20270;-84
2021/10/08 07:12:04;;;;;;;0.23;0.23;;;16.00;78.50;;;;;;5036147;28;20250;-85
2021/10/08 07:14:32;;;;;;;0.03;0.03;;;16.00;78.50;;;;;;5034919;28;20216;-85
2021/10/08 07:16:59;;;;;;;14.03;12.47;;;16.10;78.40;;;;;;5034531;28;20235;-85
2021/10/08 07:19:27;;;;;;;11.67;10.47;;;16.10;78.50;;;;;;5035680;28;20243;-85
2021/10/08 07:21:54;;;;;;;109.43;69.00;;;16.10;78.70;;;;;;5036700;28;20625;-85
2021/10/08 07:24:21;;;;;;;7.90;7.17;;;16.10;78.80;;;;;;5040960;28;20212;-84
2021/10/08 07:26:49;;;;;;;31.73;12.63;;;16.20;78.70;;;;;;5033727;28;20215;-85
2021/10/08 07:29:16;;;;;;;3.17;2.77;;;16.20;78.60;;;;;;5033811;28;20246;-85
2021/10/08 07:31:43;;;;;;;1.10;1.10;;;16.30;78.60;;;;;;5033539;28;20227;-84
2021/10/08 07:34:10;;;;;;;3.20;2.83;;;16.30;78.50;;;;;;5034151;28;20559;-84
2021/10/08 07:36:38;;;;;;;0.33;0.33;;;16.40;78.40;;;;;;5033256;28;20239;-83
2021/10/08 07:39:05;;;;;;;0.37;0.37;;;16.40;77.60;;;;;;5034676;28;20234;-83
2021/10/08 07:41:33;;;;;;;0.10;0.10;;;16.50;77.80;;;;;;5034261;28;20234;-85
2021/10/08 07:44:00;;;;;;;0.10;0.10;;;16.60;77.20;;;;;;5018323;28;20221;-84
2021/10/08 07:46:27;;;;;;;0.10;0.10;;;16.60;76.80;;;;;;5034204;28;20220;-84
2021/10/08 07:48:55;;;;;;;1.10;1.10;;;16.70;76.20;;;;;;5034389;28;20208;-83
2021/10/08 07:51:22;;;;;;;0.10;0.10;;;16.70;75.70;;;;;;5034265;28;20211;-83
2021/10/08 07:53:49;;;;;;;0.63;0.63;;;16.70;75.70;;;;;;5033900;28;20285;-83
2021/10/08 07:56:17;;;;;;;0.60;0.60;;;16.80;75.80;;;;;;5033806;28;20235;-84
2021/10/08 07:58:48;;;;;;;0.10;0.10;;;16.80;75.60;;;;;;5033515;28;20240;-84
2021/10/08 08:01:15;;;;;;;0.47;0.30;;;16.90;75.20;;;;;;5034230;28;20299;-83
2021/10/08 08:03:42;;;;;;;0.10;0.10;;;16.90;75.00;;;;;;5033949;28;20219;-84
2021/10/08 08:06:09;;;;;;;0.30;0.30;;;17.10;74.50;;;;;;5034692;28;20282;-84
2021/10/08 08:08:37;;;;;;;0.23;0.23;;;17.20;74.30;;;;;;5033497;28;20287;-84
2021/10/08 08:11:04;;;;;;;0.10;0.10;;;17.20;74.30;;;;;;5033678;28;20263;-84
2021/10/08 08:13:32;;;;;;;0.83;0.83;;;17.30;74.00;;;;;;5034294;28;20269;-84
2021/10/08 08:15:59;;;;;;;0.10;0.10;;;17.40;73.70;;;;;;5034044;28;20227;-83
2021/10/08 08:18:26;;;;;;;0.10;0.10;;;17.40;72.90;;;;;;5034376;28;20212;-84
2021/10/08 08:20:54;;;;;;;0.10;0.10;;;17.50;72.50;;;;;;5034916;28;20636;-85
2021/10/08 08:23:22;;;;;;;0.10;0.10;;;17.50;73.10;;;;;;5035222;28;20226;-84
2021/10/08 08:25:49;;;;;;;0.10;0.10;;;17.60;72.90;;;;;;5038338;28;20215;-84
2021/10/08 08:28:16;;;;;;;0.10;0.10;;;17.70;72.70;;;;;;5038223;28;20215;-85
2021/10/08 08:30:44;;;;;;;0.30;0.30;;;17.90;72.50;;;;;;5038229;28;20639;-83
2021/10/08 08:33:12;;;;;;;0.70;0.57;;;17.90;72.10;;;;;;5038104;28;20207;-84
2021/10/08 08:35:41;;;;;;;0.20;0.20;;;18.00;71.90;;;;;;5037539;28;20644;-84
2021/10/08 08:38:09;;;;;;;0.43;0.43;;;18.10;71.70;;;;;;5037641;28;20545;-84
2021/10/08 08:40:36;;;;;;;0.30;0.30;;;18.00;71.70;;;;;;5037611;28;20517;-84
2021/10/08 08:43:04;;;;;;;0.10;0.10;;;18.10;71.60;;;;;;5037768;28;20218;-84
2021/10/08 08:45:33;;;;;;;0.83;0.83;;;18.10;72.10;;;;;;5037267;28;20247;-84
2021/10/08 08:48:04;;;;;;;0.13;0.13;;;18.20;72.40;;;;;;5038535;28;20230;-82
2021/10/08 08:50:34;;;;;;;0.10;0.10;;;18.30;71.80;;;;;;5037693;28;20269;-83
2021/10/08 08:53:01;;;;;;;0.30;0.30;;;18.30;71.70;;;;;;5037315;28;20234;-84
2021/10/08 08:55:30;;;;;;;0.20;0.20;;;18.40;72.00;;;;;;5037270;28;20227;-84
2021/10/08 08:57:57;;;;;;;0.67;0.67;;;18.40;71.50;;;;;;5037623;28;20235;-83
2021/10/08 09:00:25;;;;;;;0.60;0.60;;;18.50;70.70;;;;;;5028963;28;20220;-84
2021/10/08 09:03:01;;;;;;;3.90;0.97;;;18.60;70.60;;;;;;5000536;28;20292;-84
2021/10/08 09:05:34;;;;;;;0.30;0.30;;;18.60;70.00;;;;;;5002040;28;20587;-83
2021/10/08 09:08:04;;;;;;;0.20;0.20;;;18.70;70.00;;;;;;5001418;28;20595;-83
2021/10/08 09:10:36;;;;;;;0.30;0.30;;;18.90;69.70;;;;;;5012883;28;20227;-84
2021/10/08 09:13:05;;;;;;;0.13;0.13;;;19.00;69.30;;;;;;4982438;28;20209;-83
2021/10/08 09:15:52;;;;;;;0.10;0.10;;;19.00;67.70;;;;;;4982438;28;20209;-84
2021/10/08 09:18:25;;;;;;;0.30;0.30;;;19.00;68.40;;;;;;4982769;28;20267;-85
2021/10/08 09:21:18;;;;;;;0.37;0.37;;;19.10;68.30;;;;;;4986234;28;20708;-82
2021/10/08 09:23:47;;;;;;;0.70;0.70;;;19.10;66.20;;;;;;5004361;28;20231;-84
2021/10/08 09:26:25;;;;;;;0.20;0.20;;;19.10;67.10;;;;;;5000083;28;20217;-84
2021/10/08 09:29:00;;;;;;;0.53;0.40;;;19.20;67.20;;;;;;4981755;28;20217;-83
2021/10/08 09:31:36;;;;;;;0.63;0.60;;;19.20;67.00;;;;;;4981680;28;20204;-84
2021/10/08 09:34:21;;;;;;;0.10;0.10;;;19.30;66.90;;;;;;4998857;28;20209;-83
2021/10/08 09:36:56;;;;;;;0.10;0.10;;;19.20;66.70;;;;;;4980711;28;20240;-84
2021/10/08 09:39:33;;;;;;;0.20;0.17;;;19.30;66.90;;;;;;5000303;28;20215;-85
2021/10/08 09:42:14;;;;;;;0.10;0.10;;;19.30;66.90;;;;;;4999153;28;20208;-84
2021/10/08 09:44:47;;;;;;;0.10;0.10;;;19.40;67.10;;;;;;5001130;28;20665;-84
2021/10/08 09:47:19;;;;;;;0.80;0.80;;;19.50;66.50;;;;;;4982681;28;20226;-82
2021/10/08 09:49:49;;;;;;;0.20;0.20;;;19.50;66.30;;;;;;5001873;28;20226;-83
2021/10/08 09:52:25;;;;;;;0.57;0.57;;;19.60;66.60;;;;;;5002444;28;20303;-85
2021/10/08 09:55:01;;;;;;;0.67;0.60;;;19.60;66.80;;;;;;5004049;28;20267;-84
2021/10/08 09:57:28;;;;;;;0.20;0.20;;;19.70;65.70;;;;;;4980561;28;20244;-81
2021/10/08 09:59:56;;;;;;;1.90;1.27;;;19.80;65.90;;;;;;5001351;28;20642;-82
2021/10/08 10:02:23;;;;;;;0.53;0.50;;;19.80;65.60;;;;;;4989689;28;20236;-84
2021/10/08 10:04:59;;;;;;;0.77;0.77;;;19.90;65.50;;;;;;5019495;28;20211;-84
2021/10/08 10:07:27;;;;;;;1.40;1.00;;;19.90;63.60;;;;;;5018882;28;20230;-82
2021/10/08 10:09:54;;;;;;;3.80;1.73;;;20.00;65.10;;;;;;5011914;28;20634;-81
2021/10/08 10:12:34;;;;;;;0.10;0.10;;;19.90;60.50;;;;;;5000292;28;20293;-83
2021/10/08 10:15:02;;;;;;;1.50;0.93;;;20.00;62.00;;;;;;4991230;28;20231;-83
2021/10/08 10:17:29;;;;;;;0.10;0.10;;;19.90;60.50;;;;;;4987629;28;20247;-82
2021/10/08 10:19:58;;;;;;;0.60;0.60;;;19.90;60.50;;;;;;4995875;28;20209;-84
2021/10/08 10:22:26;;;;;;;0.40;0.40;;;19.90;60.50;;;;;;4992618;28;20221;-84
2021/10/08 10:24:54;;;;;;;0.17;0.17;;;19.90;60.80;;;;;;4997456;28;20220;-83
2021/10/08 10:27:21;;;;;;;1.33;0.97;;;19.90;60.40;;;;;;4982739;28;20225;-83
2021/10/08 10:29:49;;;;;;;8.37;1.23;;;19.90;58.30;;;;;;4991942;28;20211;-83
2021/10/08 10:32:16;;;;;;;0.30;0.30;;;19.80;57.90;;;;;;4987443;28;20255;-83
2021/10/08 10:34:43;;;;;;;0.10;0.10;;;19.80;58.10;;;;;;5017071;28;20242;-83
2021/10/08 10:37:30;;;;;;;0.57;0.57;;;19.70;57.40;;;;;;4996655;28;20704;-83
2021/10/08 10:40:19;;;;;;;0.10;0.10;;;19.60;56.70;;;;;;5011636;28;20215;-84
2021/10/08 10:43:06;;;;;;;0.10;0.10;;;19.60;56.90;;;;;;5017996;28;20188;-85
2021/10/08 10:45:34;;;;;;;0.10;0.10;;;19.60;57.10;;;;;;4998878;28;20250;-84
2021/10/08 10:48:28;;;;;;;0.17;0.17;;;19.60;57.00;;;;;;4996895;28;20216;-84
2021/10/08 10:51:15;;;;;;;0.83;0.83;;;19.60;56.30;;;;;;4982036;28;20221;-84
2021/10/08 10:53:53;;;;;;;0.30;0.30;;;19.60;56.60;;;;;;4979302;28;20275;-84
2021/10/08 10:56:43;;;;;;;0.90;0.60;;;19.70;56.90;;;;;;4997097;28;20246;-84
2021/10/08 10:59:29;;;;;;;1.03;0.40;;;19.80;55.40;;;;;;4990536;28;20245;-83
2021/10/08 11:02:18;;;;;;;0.10;0.10;;;19.80;55.70;;;;;;4994229;28;20278;-84
2021/10/08 11:04:55;;;;;;;0.10;0.10;;;19.80;56.00;;;;;;4994685;28;20193;-83
2021/10/08 11:07:23;;;;;;;0.10;0.10;;;19.80;55.30;;;;;;4979930;28;20220;-83
2021/10/08 11:10:03;;;;;;;0.00;0.00;;;19.80;55.70;;;;;;4998248;28;20234;-85
2021/10/08 11:12:43;;;;;;;0.20;0.20;;;19.80;56.90;;;;;;5014939;28;20279;-84
2021/10/08 11:15:19;;;;;;;0.10;0.10;;;19.80;55.40;;;;;;5014826;28;20304;-83
2021/10/08 11:17:49;;;;;;;0.10;0.10;;;19.70;54.40;;;;;;5005234;28;20245;-83
2021/10/08 11:20:42;;;;;;;0.10;0.10;;;19.70;55.00;;;;;;4990477;28;20212;-84
2021/10/08 11:23:24;;;;;;;0.53;0.53;;;19.60;55.80;;;;;;4973882;28;20228;-82
2021/10/08 11:25:55;;;;;;;0.93;0.83;;;19.60;56.80;;;;;;5005752;28;20553;-83
2021/10/08 11:28:32;;;;;;;0.07;0.07;;;19.60;56.80;;;;;;4977880;28;20200;-82
2021/10/08 11:31:00;;;;;;;1.80;1.50;;;19.60;56.10;;;;;;4979552;28;20197;-83
2021/10/08 11:33:43;;;;;;;0.43;0.40;;;19.50;56.30;;;;;;4992546;28;20223;-82
2021/10/08 11:36:28;;;;;;;0.10;0.10;;;19.50;56.00;;;;;;4998781;28;20216;-84
2021/10/08 11:39:13;;;;;;;0.40;0.40;;;19.60;55.70;;;;;;5014095;28;20258;-84
2021/10/08 11:41:43;;;;;;;0.10;0.10;;;19.60;54.90;;;;;;4986739;28;20209;-82
2021/10/08 11:44:24;;;;;;;24.53;2.30;;;19.50;55.60;;;;;;4999760;28;20273;-82
2021/10/08 11:52:03;;;;;;;0.10;0.10;;;19.60;56.70;;;;;;4991620;28;20741;-80
2021/10/08 11:54:30;;;;;;;0.20;0.20;;;19.70;56.90;;;;;;4986921;28;20216;-82
2021/10/08 11:57:09;;;;;;;0.83;0.83;;;19.60;56.20;;;;;;4994757;28;20244;-81
2021/10/08 11:59:38;;;;;;;5.43;1.13;;;19.60;55.80;;;;;;4983498;28;20217;-82
2021/10/08 12:02:14;;;;;;;0.10;0.10;;;19.60;56.10;;;;;;5003456;28;20209;-82
2021/10/08 12:04:59;;;;;;;0.10;0.10;;;19.60;55.80;;;;;;4991749;28;20267;-82
2021/10/08 12:07:35;;;;;;;0.10;0.10;;;19.60;56.40;;;;;;4986133;28;20201;-81
2021/10/08 12:10:13;;;;;;;0.10;0.10;;;19.50;56.10;;;;;;5012374;28;20224;-82
2021/10/08 12:12:53;;;;;;;0.50;0.50;;;19.60;56.20;;;;;;4993659;28;20228;-83
2021/10/08 12:15:33;;;;;;;0.57;0.57;;;19.60;56.30;;;;;;4999878;28;20224;-83
2021/10/08 12:18:02;;;;;;;1.13;0.50;;;19.80;56.70;;;;;;4997047;28;20228;-84
2021/10/08 12:20:33;;;;;;;0.10;0.10;;;19.90;56.80;;;;;;4984940;28;20209;-83
2021/10/08 12:23:20;;;;;;;0.03;0.03;;;20.00;56.40;;;;;;4994675;28;20215;-84
2021/10/08 12:25:53;;;;;;;0.30;0.30;;;20.10;57.00;;;;;;5002338;28;20239;-84
2021/10/08 12:28:25;;;;;;;0.97;0.63;;;20.20;56.10;;;;;;4989608;28;20641;-82
2021/10/08 12:30:59;;;;;;;0.10;0.10;;;20.30;56.40;;;;;;4988066;28;20225;-83
2021/10/08 12:33:35;;;;;;;0.73;0.53;;;20.30;55.40;;;;;;4990217;28;20214;-81
2021/10/08 12:36:22;;;;;;;0.50;0.13;;;20.30;54.30;;;;;;4995041;28;20212;-83
2021/10/08 12:39:16;;;;;;;0.23;0.23;;;20.20;55.60;;;;;;4997525;28;20227;-82
2021/10/08 12:41:53;;;;;;;0.50;0.43;;;20.10;56.00;;;;;;5001301;28;20219;-82
2021/10/08 12:44:31;;;;;;;0.10;0.10;;;20.10;55.90;;;;;;4997754;28;20228;-82
2021/10/08 12:47:15;;;;;;;0.00;0.00;;;20.00;55.60;;;;;;4993494;28;20263;-82
2021/10/08 12:49:49;;;;;;;0.10;0.10;;;20.00;55.40;;;;;;4986741;28;20205;-81
2021/10/08 12:52:29;;;;;;;0.10;0.10;;;20.00;56.50;;;;;;4990781;28;20227;-82
2021/10/08 12:55:05;;;;;;;0.40;0.20;;;20.00;57.00;;;;;;5000714;28;20231;-83
2021/10/08 12:57:32;;;;;;;0.10;0.10;;;20.00;56.20;;;;;;5012207;28;20255;-82
2021/10/08 13:00:00;;;;;;;0.30;0.30;;;20.10;56.20;;;;;;4999858;28;20223;-83
2021/10/08 13:02:45;;;;;;;0.20;0.20;;;20.10;55.60;;;;;;4990779;28;20220;-83
2021/10/08 13:05:14;;;;;;;0.13;0.13;;;20.10;56.20;;;;;;4986351;28;20232;-83
2021/10/08 13:07:42;;;;;;;1.30;1.20;;;20.00;55.90;;;;;;4992930;28;20229;-83
2021/10/08 13:10:17;;;;;;;0.83;0.83;;;20.00;56.90;;;;;;5004622;28;20217;-83